createdAt,value
2023-03-27T00:00:35.497Z,101.43
2023-03-27T00:03:18.776Z,101.22
2023-03-27T00:06:09.434Z,104.07
2023-03-27T00:08:53.641Z,103.43
2023-03-27T00:11:42.367Z,104.78
2023-03-27T00:14:25.001Z,98.85
2023-03-27T00:17:13.422Z,100.72
2023-03-27T00:19:55.727Z,94.60
2023-03-27T00:22:44.437Z,96.10
2023-03-27T00:25:27.886Z,85.60
2023-03-27T00:28:16.415Z,82.68
2023-03-27T00:30:59.594Z,86.80
2023-03-27T00:33:49.355Z,88.00
2023-03-27T00:36:39.361Z,78.05
2023-03-27T00:39:28.954Z,63.80
2023-03-27T00:42:11.426Z,68.63
2023-03-27T00:45:00.576Z,66.00
2023-03-27T00:47:49.405Z,54.65
2023-03-27T00:50:44.317Z,59.75
2023-03-27T00:53:36.372Z,56.58
2023-03-27T00:56:26.322Z,49.65
2023-03-27T00:59:15.339Z,50.90
2023-03-27T01:02:05.359Z,50.08
2023-03-27T01:04:49.004Z,48.80
2023-03-27T01:07:37.388Z,50.83
2023-03-27T01:10:27.166Z,46.47
2023-03-27T01:13:27.437Z,47.10
2023-03-27T01:16:18.520Z,49.85
2023-03-27T01:19:32.409Z,50.40
2023-03-27T01:22:41.826Z,46.08
2023-03-27T01:25:57.482Z,47.95
2023-03-27T01:28:45.679Z,51.42
2023-03-27T01:31:45.488Z,46.40
2023-03-27T01:34:43.727Z,54.65
2023-03-27T01:38:17.429Z,49.55
2023-03-27T01:41:17.392Z,48.05
2023-03-27T01:44:43.380Z,54.05
2023-03-27T01:47:42.793Z,51.00
2023-03-27T01:50:57.556Z,58.35
2023-03-27T01:53:55.320Z,49.42
2023-03-27T01:56:53.521Z,50.97
2023-03-27T02:00:18.583Z,41.30
2023-03-27T02:03:35.365Z,46.00
2023-03-27T02:06:44.365Z,36.35
2023-03-27T02:09:42.658Z,41.75
2023-03-27T02:12:32.423Z,40.63
2023-03-27T02:15:24.111Z,52.28
2023-03-27T02:18:17.405Z,46.42
2023-03-27T02:21:00.852Z,39.00
2023-03-27T02:23:51.321Z,41.92
2023-03-27T02:26:41.653Z,31.85
2023-03-27T02:29:58.374Z,26.10
2023-03-27T02:32:49.421Z,28.65
2023-03-27T02:35:42.387Z,34.08
2023-03-27T02:38:33.444Z,31.27
2023-03-27T02:41:41.780Z,27.73
2023-03-27T02:44:32.728Z,28.40
2023-03-27T02:47:37.432Z,26.80
2023-03-27T02:51:08.816Z,34.75
2023-03-27T02:54:03.360Z,48.20
2023-03-27T02:57:00.059Z,30.02
2023-03-27T03:00:05.411Z,28.73
2023-03-27T03:02:54.466Z,30.38
2023-03-27T03:05:45.433Z,26.88
2023-03-27T03:08:39.438Z,26.67
2023-03-27T03:11:22.309Z,28.95
2023-03-27T03:14:10.622Z,31.23
2023-03-27T03:16:53.433Z,23.23
2023-03-27T03:19:42.427Z,34.08
2023-03-27T03:22:24.632Z,28.83
2023-03-27T03:25:16.430Z,22.45
2023-03-27T03:28:01.456Z,34.38
2023-03-27T03:30:53.384Z,23.88
2023-03-27T03:33:37.172Z,29.60
2023-03-27T03:36:26.369Z,25.90
2023-03-27T03:39:08.765Z,25.13
2023-03-27T03:42:02.378Z,29.52
2023-03-27T03:44:51.690Z,25.15
2023-03-27T03:47:47.293Z,31.45
2023-03-27T03:50:38.368Z,27.70
2023-03-27T03:53:22.809Z,28.27
2023-03-27T03:56:11.365Z,25.88
2023-03-27T04:01:49.330Z,29.83
2023-03-27T04:04:46.504Z,25.92
2023-03-27T04:07:45.312Z,26.33
2023-03-27T04:10:55.462Z,34.78
2023-03-27T04:13:55.479Z,31.77
2023-03-27T04:16:50.312Z,30.10
2023-03-27T04:19:41.398Z,35.58
2023-03-27T04:22:24.648Z,36.60
2023-03-27T04:25:15.461Z,42.77
2023-03-27T04:27:58.650Z,37.70
2023-03-27T04:30:58.652Z,26.23
2023-03-27T04:34:04.117Z,38.88
2023-03-27T04:37:23.093Z,37.47
2023-03-27T04:40:21.966Z,28.65
2023-03-27T04:43:10.379Z,24.05
2023-03-27T04:45:52.598Z,26.50
2023-03-27T04:48:42.417Z,31.17
2023-03-27T04:51:42.366Z,33.33
2023-03-27T04:54:32.839Z,29.27
2023-03-27T04:57:15.320Z,31.65
2023-03-27T05:03:02.488Z,30.58
2023-03-27T05:06:00.621Z,19.73
2023-03-27T05:08:52.441Z,18.17
2023-03-27T05:11:46.394Z,23.10
2023-03-27T05:14:30.664Z,8.55
2023-03-27T05:17:20.354Z,13.55
2023-03-27T05:20:02.886Z,16.05
2023-03-27T05:22:52.353Z,12.13
2023-03-27T05:25:44.287Z,16.75
2023-03-27T05:28:34.308Z,12.23
2023-03-27T05:31:23.458Z,11.25
2023-03-27T05:34:29.700Z,8.73
2023-03-27T05:37:20.332Z,7.13
2023-03-27T05:40:23.095Z,8.23
2023-03-27T05:43:13.342Z,7.53
2023-03-27T05:45:55.788Z,9.32
2023-03-27T05:48:46.788Z,9.15
2023-03-27T05:51:37.013Z,7.75
2023-03-27T05:54:20.352Z,10.05
2023-03-27T05:57:14.401Z,10.70
2023-03-27T06:00:02.822Z,9.32
2023-03-27T06:02:57.537Z,11.25
2023-03-27T06:06:02.129Z,13.73
2023-03-27T06:08:52.399Z,16.30
2023-03-27T06:11:35.693Z,9.50
2023-03-27T06:14:24.406Z,12.90
2023-03-27T06:17:26.858Z,8.52
2023-03-27T06:20:20.316Z,10.02
2023-03-27T06:23:14.298Z,15.57
2023-03-27T06:26:03.657Z,8.63
2023-03-27T06:28:47.361Z,10.90
2023-03-27T06:31:37.227Z,8.77
2023-03-27T06:34:26.404Z,7.45
2023-03-27T06:37:37.832Z,6.57
2023-03-27T06:40:33.362Z,9.30
2023-03-27T06:43:25.422Z,7.28
2023-03-27T06:46:27.583Z,7.57
2023-03-27T06:49:46.374Z,17.50
2023-03-27T06:52:38.345Z,9.45
2023-03-27T06:55:41.733Z,12.18
2023-03-27T06:58:31.366Z,9.60
2023-03-27T07:01:15.685Z,14.20
2023-03-27T07:04:44.254Z,10.75
2023-03-27T07:07:35.657Z,8.70
2023-03-27T07:13:17.358Z,6.65
2023-03-27T07:16:05.837Z,9.10
2023-03-27T07:18:49.322Z,10.38
2023-03-27T07:21:33.199Z,8.93
2023-03-27T07:24:25.402Z,9.02
2023-03-27T07:27:13.612Z,10.93
2023-03-27T07:29:56.402Z,9.93
2023-03-27T07:32:49.844Z,6.47
2023-03-27T07:35:33.570Z,6.13
2023-03-27T07:38:35.343Z,8.13
2023-03-27T07:41:39.388Z,8.13
2023-03-27T07:44:30.710Z,6.25
2023-03-27T07:47:22.352Z,6.80
2023-03-27T07:50:07.389Z,8.15
2023-03-27T07:52:57.399Z,8.15
2023-03-27T07:55:47.281Z,10.45
2023-03-27T07:58:30.473Z,9.65
2023-03-27T08:01:12.712Z,15.77
2023-03-27T08:04:02.494Z,10.82
2023-03-27T08:06:54.315Z,7.03
2023-03-27T08:09:37.630Z,14.43
2023-03-27T08:12:27.315Z,9.43
2023-03-27T08:15:10.608Z,6.82
2023-03-27T08:18:04.471Z,6.38
2023-03-27T08:20:46.649Z,13.75
2023-03-27T08:23:38.346Z,8.85
2023-03-27T08:26:39.580Z,11.75
2023-03-27T08:29:28.350Z,11.82
2023-03-27T08:32:21.401Z,10.43
2023-03-27T08:35:10.615Z,8.73
2023-03-27T08:37:54.506Z,7.85
2023-03-27T08:43:52.414Z,9.20
2023-03-27T08:47:08.262Z,8.75
2023-03-27T08:50:18.335Z,19.67
2023-03-27T08:53:31.775Z,13.93
2023-03-27T08:56:25.437Z,12.80
2023-03-27T08:59:21.639Z,7.97
2023-03-27T09:02:24.394Z,11.02
2023-03-27T09:05:37.579Z,8.30
2023-03-27T09:08:32.436Z,5.75
2023-03-27T09:11:21.918Z,7.30
2023-03-27T09:14:13.346Z,16.73
2023-03-27T09:17:05.825Z,8.85
2023-03-27T09:19:54.340Z,13.30
2023-03-27T09:22:45.296Z,8.15
2023-03-27T09:26:03.444Z,17.30
2023-03-27T09:29:24.307Z,9.00
2023-03-27T09:32:33.677Z,12.23
2023-03-27T09:35:25.772Z,17.00
2023-03-27T09:38:11.284Z,13.82
2023-03-27T09:41:10.725Z,12.30
2023-03-27T09:44:14.342Z,5.22
2023-03-27T09:47:22.190Z,12.07
2023-03-27T09:50:38.606Z,10.63
2023-03-27T09:53:44.100Z,18.17
2023-03-27T09:56:37.412Z,11.23
2023-03-27T09:59:45.393Z,15.50
2023-03-27T10:02:32.677Z,10.90
2023-03-27T10:05:33.671Z,10.13
2023-03-27T10:08:53.861Z,11.27
2023-03-27T10:11:48.426Z,14.02
2023-03-27T10:17:53.536Z,13.77
2023-03-27T10:20:43.606Z,9.40
2023-03-27T10:23:47.373Z,9.10
2023-03-27T10:27:00.287Z,10.45
2023-03-27T10:29:52.379Z,8.60
2023-03-27T10:32:48.969Z,11.30
2023-03-27T10:36:05.384Z,20.73
2023-03-27T10:39:04.295Z,12.65
2023-03-27T10:41:58.671Z,13.10
2023-03-27T10:44:51.386Z,9.25
2023-03-27T10:47:40.587Z,14.55
2023-03-27T10:50:38.325Z,15.30
2023-03-27T10:53:40.322Z,13.52
2023-03-27T10:56:40.349Z,11.45
2023-03-27T10:59:41.603Z,16.35
2023-03-27T11:03:21.270Z,11.68
2023-03-27T11:06:14.628Z,13.35
2023-03-27T11:09:34.358Z,12.20
2023-03-27T11:12:21.724Z,17.38
2023-03-27T11:15:27.303Z,14.73
2023-03-27T11:24:19.594Z,14.98
2023-03-27T11:27:31.284Z,11.38
2023-03-27T11:30:26.758Z,17.73
2023-03-27T11:33:42.292Z,17.52
2023-03-27T11:36:49.410Z,15.80
2023-03-27T11:39:57.322Z,13.70
2023-03-27T11:42:43.663Z,15.30
2023-03-27T11:45:35.272Z,17.00
2023-03-27T11:48:47.274Z,13.50
2023-03-27T11:51:43.852Z,12.75
2023-03-27T11:55:14.280Z,10.95
2023-03-27T11:58:21.317Z,15.45
2023-03-27T12:01:27.388Z,6.53
2023-03-27T12:04:24.685Z,14.95
2023-03-27T12:07:36.185Z,9.90
2023-03-27T12:10:38.724Z,13.68
2023-03-27T12:14:02.429Z,13.13
2023-03-27T12:16:56.441Z,11.73
2023-03-27T12:20:13.567Z,13.48
2023-03-27T12:23:10.053Z,18.60
2023-03-27T12:26:51.309Z,13.00
2023-03-27T12:29:58.200Z,8.32
2023-03-27T12:33:12.389Z,16.23
2023-03-27T12:36:06.767Z,7.32
2023-03-27T12:38:51.498Z,9.20
2023-03-27T12:41:50.580Z,8.88
2023-03-27T12:45:13.387Z,11.75
2023-03-27T12:48:17.321Z,10.13
2023-03-27T12:51:00.721Z,11.43
2023-03-27T12:54:00.363Z,10.32
2023-03-27T12:56:51.499Z,8.13
2023-03-27T13:00:11.492Z,9.70
2023-03-27T13:03:12.417Z,9.13
2023-03-27T13:06:23.695Z,10.07
2023-03-27T13:09:27.374Z,8.13
2023-03-27T13:12:36.517Z,12.40
2023-03-27T13:15:39.816Z,9.68
2023-03-27T13:18:52.146Z,15.68
2023-03-27T13:21:53.564Z,11.82
2023-03-27T13:25:00.369Z,16.30
2023-03-27T13:27:58.185Z,16.50
2023-03-27T13:30:56.537Z,9.07
2023-03-27T13:34:42.700Z,10.07
2023-03-27T13:37:38.298Z,15.25
2023-03-27T13:40:39.294Z,12.60
2023-03-27T13:46:41.746Z,14.40
2023-03-27T13:50:14.504Z,11.82
2023-03-27T13:53:33.936Z,12.00
2023-03-27T13:56:52.417Z,6.80
2023-03-27T14:00:23.946Z,9.10
2023-03-27T14:03:48.435Z,11.05
2023-03-27T14:06:45.570Z,14.93
2023-03-27T14:09:55.486Z,9.13
2023-03-27T14:13:10.143Z,11.23
2023-03-27T14:16:18.409Z,9.88
2023-03-27T14:19:14.606Z,14.05
2023-03-27T14:22:12.371Z,15.30
2023-03-27T14:25:13.603Z,13.57
2023-03-27T14:28:09.426Z,24.33
2023-03-27T14:30:55.574Z,14.38
2023-03-27T14:34:05.521Z,13.03
2023-03-27T14:36:53.053Z,14.80
2023-03-27T14:39:50.388Z,11.40
2023-03-27T14:42:49.312Z,17.48
2023-03-27T14:45:47.483Z,17.08
2023-03-27T14:48:47.123Z,19.33
2023-03-27T14:51:35.532Z,13.82
2023-03-27T14:54:28.352Z,14.73
2023-03-27T14:57:26.326Z,16.90
2023-03-27T15:00:30.888Z,21.73
2023-03-27T15:03:24.457Z,17.00
2023-03-27T15:06:28.599Z,13.05
2023-03-27T15:09:20.679Z,15.18
2023-03-27T15:12:14.882Z,17.75
2023-03-27T15:15:07.371Z,25.65
2023-03-27T15:18:07.554Z,31.23
2023-03-27T15:20:51.894Z,22.42
2023-03-27T15:24:08.487Z,22.05
2023-03-27T15:26:51.878Z,20.52
2023-03-27T15:30:06.365Z,26.63
2023-03-27T15:32:56.309Z,18.15
2023-03-27T15:35:52.314Z,18.20
2023-03-27T15:38:38.784Z,20.70
2023-03-27T15:41:40.302Z,19.60
2023-03-27T15:44:29.770Z,15.55
2023-03-27T15:47:33.337Z,17.27
2023-03-27T15:53:41.337Z,14.98
2023-03-27T15:56:47.744Z,16.38
2023-03-27T15:59:51.813Z,16.58
2023-03-27T16:02:42.384Z,13.25
2023-03-27T16:05:25.385Z,20.30
2023-03-27T16:08:16.287Z,23.35
2023-03-27T16:10:59.870Z,15.75
2023-03-27T16:13:52.043Z,20.45
2023-03-27T16:16:44.276Z,21.65
2023-03-27T16:19:27.538Z,27.67
2023-03-27T16:22:16.690Z,30.58
2023-03-27T16:27:55.364Z,22.60
2023-03-27T16:30:40.435Z,32.95
2023-03-27T16:33:18.437Z,26.65
2023-03-27T16:35:48.950Z,31.23
2023-03-27T16:38:20.101Z,23.25
2023-03-27T16:40:50.915Z,30.75
2023-03-27T16:43:21.283Z,29.95
2023-03-27T16:45:51.992Z,34.08
2023-03-27T16:48:24.245Z,19.20
2023-03-27T16:50:54.133Z,31.67
2023-03-27T16:53:23.665Z,18.83
2023-03-27T16:55:58.907Z,26.27
2023-03-27T16:58:29.812Z,27.25
2023-03-27T17:00:59.985Z,24.50
2023-03-27T17:03:30.497Z,28.45
2023-03-27T17:06:05.203Z,28.90
2023-03-27T17:08:36.313Z,28.35
2023-03-27T17:11:13.650Z,21.98
2023-03-27T17:13:44.613Z,31.15
2023-03-27T17:16:14.575Z,30.48
2023-03-27T17:18:44.566Z,32.00
2023-03-27T17:21:14.196Z,31.15
2023-03-27T17:23:45.101Z,27.45
2023-03-27T17:26:16.036Z,27.27
2023-03-27T17:28:46.007Z,29.88
2023-03-27T17:31:16.176Z,31.50
2023-03-27T17:33:46.544Z,34.80
2023-03-27T17:36:23.897Z,54.03
2023-03-27T17:39:02.473Z,48.08
2023-03-27T17:41:33.265Z,42.20
2023-03-27T17:44:03.741Z,37.33
2023-03-27T17:46:34.668Z,30.42
2023-03-27T17:49:04.894Z,35.95
2023-03-27T17:51:36.795Z,39.65
2023-03-27T17:54:07.217Z,38.70
2023-03-27T17:56:38.911Z,37.78
2023-03-27T17:59:11.451Z,31.70
2023-03-27T18:01:42.136Z,31.27
2023-03-27T18:04:13.648Z,31.20
2023-03-27T18:06:44.119Z,26.00
2023-03-27T18:09:15.530Z,35.42
2023-03-27T18:11:46.937Z,33.08
2023-03-27T18:14:17.789Z,28.95
2023-03-27T18:16:47.474Z,33.78
2023-03-27T18:19:17.931Z,25.83
2023-03-27T18:21:48.470Z,32.95
2023-03-27T18:24:18.301Z,33.95
2023-03-27T18:26:49.668Z,35.70
2023-03-27T18:29:22.322Z,32.92
2023-03-27T18:31:53.526Z,32.13
2023-03-27T18:34:24.210Z,37.67
2023-03-27T18:36:55.665Z,42.33
2023-03-27T18:39:25.551Z,39.25
2023-03-27T18:41:56.222Z,44.10
2023-03-27T18:44:26.193Z,43.25
2023-03-27T18:46:56.785Z,44.22
2023-03-27T18:49:26.439Z,43.50
2023-03-27T18:51:56.379Z,55.10
2023-03-27T18:54:26.012Z,55.33
2023-03-27T18:56:55.669Z,45.95
2023-03-27T18:59:25.966Z,51.03
2023-03-27T19:01:56.127Z,48.53
2023-03-27T19:04:25.999Z,54.80
2023-03-27T19:06:55.739Z,49.50
2023-03-27T19:09:38.079Z,50.63
2023-03-27T19:12:12.346Z,52.92
2023-03-27T19:15:09.731Z,56.72
2023-03-27T19:18:10.042Z,53.55
2023-03-27T19:21:01.848Z,62.10
2023-03-27T19:23:44.858Z,63.55
2023-03-27T19:26:20.336Z,51.90
2023-03-27T19:28:50.012Z,55.17
2023-03-27T19:31:20.134Z,48.85
2023-03-27T19:33:49.874Z,55.17
2023-03-27T19:36:19.239Z,55.15
2023-03-27T19:38:49.674Z,56.17
2023-03-27T19:41:19.159Z,59.15
2023-03-27T19:43:48.569Z,64.22
2023-03-27T19:46:18.422Z,61.30
2023-03-27T19:48:50.848Z,50.45
2023-03-27T19:51:29.421Z,52.38
2023-03-27T19:53:58.684Z,52.70
2023-03-27T19:56:29.191Z,61.95
2023-03-27T19:58:58.854Z,48.22
2023-03-27T20:01:29.670Z,52.97
2023-03-27T20:04:00.264Z,51.55
2023-03-27T20:06:30.159Z,50.55
2023-03-27T20:09:01.316Z,47.13
2023-03-27T20:11:30.686Z,54.40
2023-03-27T20:14:00.235Z,61.17
2023-03-27T20:16:31.051Z,53.08
2023-03-27T20:19:04.698Z,57.65
2023-03-27T20:21:37.207Z,50.35
2023-03-27T20:24:10.869Z,62.33
2023-03-27T20:26:43.904Z,48.35
2023-03-27T20:29:19.772Z,50.38
2023-03-27T20:31:49.529Z,53.47
2023-03-27T20:34:20.383Z,45.05
2023-03-27T20:36:54.088Z,45.80
2023-03-27T20:39:39.742Z,48.22
2023-03-27T20:42:16.136Z,60.67
2023-03-27T20:45:00.644Z,61.97
2023-03-27T20:47:40.679Z,53.97
2023-03-27T20:50:10.683Z,42.13
2023-03-27T20:52:40.074Z,49.78
2023-03-27T20:55:17.379Z,44.95
2023-03-27T21:00:22.962Z,52.00
2023-03-27T21:02:52.542Z,48.53
2023-03-27T21:05:21.965Z,50.80
2023-03-27T21:07:53.004Z,54.42
2023-03-27T21:10:22.565Z,53.80
2023-03-27T21:12:52.433Z,82.40
2023-03-27T21:15:21.920Z,50.85
2023-03-27T21:17:51.958Z,55.65
2023-03-27T21:20:21.477Z,53.83
2023-03-27T21:22:53.900Z,53.90
2023-03-27T21:25:24.296Z,54.05
2023-03-27T21:28:01.031Z,55.53
2023-03-27T21:30:47.111Z,63.45
2023-03-27T21:33:18.354Z,57.08
2023-03-27T21:35:49.639Z,52.47
2023-03-27T21:38:20.016Z,49.53
2023-03-27T21:40:49.891Z,60.40
2023-03-27T21:43:18.917Z,55.45
2023-03-27T21:45:50.958Z,58.85
2023-03-27T21:48:20.533Z,60.72
2023-03-27T21:50:49.700Z,53.65
2023-03-27T21:53:19.069Z,51.08
2023-03-27T21:55:48.289Z,59.33
2023-03-27T21:58:18.046Z,52.50
2023-03-27T22:00:47.865Z,54.55
2023-03-27T22:03:18.789Z,54.47
2023-03-27T22:05:57.366Z,59.85
2023-03-27T22:08:41.639Z,51.75
2023-03-27T22:11:12.806Z,61.60
2023-03-27T22:13:44.429Z,51.92
2023-03-27T22:16:17.361Z,55.05
2023-03-27T22:18:46.928Z,52.72
2023-03-27T22:21:24.663Z,53.58
2023-03-27T22:23:56.123Z,57.05
2023-03-27T22:26:30.281Z,47.40
2023-03-27T22:29:00.596Z,54.70
2023-03-27T22:31:30.836Z,62.30
2023-03-27T22:34:00.847Z,57.30
2023-03-27T22:36:29.872Z,58.45
2023-03-27T22:38:59.213Z,62.72
2023-03-27T22:41:28.835Z,64.68
2023-03-27T22:43:58.285Z,56.83
2023-03-27T22:46:27.757Z,60.95
2023-03-27T22:48:59.669Z,55.88
2023-03-27T22:51:32.412Z,60.10
2023-03-27T22:54:02.340Z,54.97
2023-03-27T22:56:31.819Z,58.08
2023-03-27T22:59:00.832Z,58.40
2023-03-27T23:01:30.323Z,64.88
2023-03-27T23:03:59.533Z,57.30
2023-03-27T23:06:28.886Z,57.25
2023-03-27T23:08:58.281Z,62.30
2023-03-27T23:11:27.419Z,63.30
2023-03-27T23:13:56.807Z,60.00
2023-03-27T23:16:26.570Z,51.53
2023-03-27T23:18:56.499Z,61.17
2023-03-27T23:21:25.499Z,57.95
2023-03-27T23:23:54.836Z,61.15
2023-03-27T23:26:24.031Z,64.32
2023-03-27T23:28:53.333Z,60.55
2023-03-27T23:31:23.037Z,69.60
2023-03-27T23:33:52.816Z,64.35
2023-03-27T23:36:24.820Z,58.90
2023-03-27T23:38:55.112Z,64.15
2023-03-27T23:41:25.081Z,60.85
2023-03-27T23:43:55.066Z,61.58
2023-03-27T23:46:24.454Z,68.80
2023-03-27T23:48:54.072Z,67.90
2023-03-27T23:51:23.660Z,67.68
2023-03-27T23:53:53.008Z,82.55
2023-03-27T23:56:22.886Z,67.18
2023-03-27T23:58:52.230Z,63.15
